sensor_id;sensor_type;location;lat;lon;timestamp;temperature;humidity
9699;DHT22;10089;47.876;8.346;2023-01-29T00:01:27;0.30;99.90
9699;DHT22;10089;47.876;8.346;2023-01-29T00:03:55;-0.80;99.90
9699;DHT22;10089;47.876;8.346;2023-01-29T00:06:20;0.30;99.90
9699;DHT22;10089;47.876;8.346;2023-01-29T00:08:48;-2.30;99.90
9699;DHT22;10089;47.876;8.346;2023-01-29T00:11:15;-2.60;99.90
9699;DHT22;10089;47.876;8.346;2023-01-29T00:13:45;-0.10;99.90
9699;DHT22;10089;47.876;8.346;2023-01-29T00:16:11;-2.00;99.90
9699;DHT22;10089;47.876;8.346;2023-01-29T00:18:38;-2.40;99.90
9699;DHT22;10089;47.876;8.346;2023-01-29T00:21:12;-0.40;99.90
9699;DHT22;10089;47.876;8.346;2023-01-29T00:23:38;-1.80;99.90
9699;DHT22;10089;47.876;8.346;2023-01-29T00:26:04;-0.40;99.90
9699;DHT22;10089;47.876;8.346;2023-01-29T00:28:30;-0.40;99.90
9699;DHT22;10089;47.876;8.346;2023-01-29T00:30:56;0.00;99.90
9699;DHT22;10089;47.876;8.346;2023-01-29T00:33:21;-2.60;99.90
9699;DHT22;10089;47.876;8.346;2023-01-29T00:35:47;-0.50;99.90
9699;DHT22;10089;47.876;8.346;2023-01-29T00:38:13;-2.10;99.90
9699;DHT22;10089;47.876;8.346;2023-01-29T00:40:40;-2.50;99.90
9699;DHT22;10089;47.876;8.346;2023-01-29T00:43:25;-0.20;99.90
9699;DHT22;10089;47.876;8.346;2023-01-29T00:46:09;-2.70;99.90
9699;DHT22;10089;47.876;8.346;2023-01-29T00:48:35;-2.70;99.90
9699;DHT22;10089;47.876;8.346;2023-01-29T00:51:02;-2.70;99.90
9699;DHT22;10089;47.876;8.346;2023-01-29T00:53:28;-2.60;99.90
9699;DHT22;10089;47.876;8.346;2023-01-29T00:55:54;-2.30;99.90
9699;DHT22;10089;47.876;8.346;2023-01-29T00:58:20;-1.00;99.90
9699;DHT22;10089;47.876;8.346;2023-01-29T01:00:50;-0.50;99.90
9699;DHT22;10089;47.876;8.346;2023-01-29T01:03:16;-1.00;99.90
9699;DHT22;10089;47.876;8.346;2023-01-29T01:05:42;-2.40;99.90
9699;DHT22;10089;47.876;8.346;2023-01-29T01:08:09;-2.70;99.90
9699;DHT22;10089;47.876;8.346;2023-01-29T01:11:05;-1.30;99.90
9699;DHT22;10089;47.876;8.346;2023-01-29T01:13:32;-2.80;99.90
9699;DHT22;10089;47.876;8.346;2023-01-29T01:15:58;-2.80;99.90
9699;DHT22;10089;47.876;8.346;2023-01-29T01:18:24;-2.80;99.90
9699;DHT22;10089;47.876;8.346;2023-01-29T01:20:56;-2.80;99.90
9699;DHT22;10089;47.876;8.346;2023-01-29T01:23:24;-0.80;99.90
9699;DHT22;10089;47.876;8.346;2023-01-29T01:25:49;-2.70;99.90
9699;DHT22;10089;47.876;8.346;2023-01-29T01:28:15;-0.50;99.90
9699;DHT22;10089;47.876;8.346;2023-01-29T01:30:41;-0.90;99.90
9699;DHT22;10089;47.876;8.346;2023-01-29T01:33:07;0.20;99.90
9699;DHT22;10089;47.876;8.346;2023-01-29T01:35:33;-2.50;99.90
9699;DHT22;10089;47.876;8.346;2023-01-29T01:37:58;-0.80;99.90
9699;DHT22;10089;47.876;8.346;2023-01-29T01:40:24;-2.90;99.90
9699;DHT22;10089;47.876;8.346;2023-01-29T01:42:52;-3.00;99.90
9699;DHT22;10089;47.876;8.346;2023-01-29T01:48:13;-2.70;99.90
9699;DHT22;10089;47.876;8.346;2023-01-29T01:50:42;-2.80;99.90
9699;DHT22;10089;47.876;8.346;2023-01-29T01:53:12;-1.60;99.90
9699;DHT22;10089;47.876;8.346;2023-01-29T01:55:46;-2.90;99.90
9699;DHT22;10089;47.876;8.346;2023-01-29T01:58:27;-2.90;99.90
9699;DHT22;10089;47.876;8.346;2023-01-29T02:00:54;-2.80;99.90
9699;DHT22;10089;47.876;8.346;2023-01-29T02:03:22;0.20;99.90
9699;DHT22;10089;47.876;8.346;2023-01-29T02:06:07;-0.70;99.90
9699;DHT22;10089;47.876;8.346;2023-01-29T02:09:08;-4.70;99.90
9699;DHT22;10089;47.876;8.346;2023-01-29T02:11:54;-2.40;99.90
9699;DHT22;10089;47.876;8.346;2023-01-29T02:14:20;-0.70;99.90
9699;DHT22;10089;47.876;8.346;2023-01-29T02:16:46;-1.20;99.90
9699;DHT22;10089;47.876;8.346;2023-01-29T02:24:47;-2.70;99.90
9699;DHT22;10089;47.876;8.346;2023-01-29T02:30:23;-2.80;99.90
9699;DHT22;10089;47.876;8.346;2023-01-29T02:33:16;-2.70;99.90
9699;DHT22;10089;47.876;8.346;2023-01-29T02:38:55;-2.80;99.90
9699;DHT22;10089;47.876;8.346;2023-01-29T02:41:38;-2.80;99.90
9699;DHT22;10089;47.876;8.346;2023-01-29T02:44:19;-2.80;99.90
9699;DHT22;10089;47.876;8.346;2023-01-29T02:49:57;-2.80;99.90
9699;DHT22;10089;47.876;8.346;2023-01-29T02:52:33;-2.80;99.90
9699;DHT22;10089;47.876;8.346;2023-01-29T02:55:05;-2.80;99.90
9699;DHT22;10089;47.876;8.346;2023-01-29T02:57:38;-2.80;99.90
9699;DHT22;10089;47.876;8.346;2023-01-29T03:02:42;-2.90;99.90
9699;DHT22;10089;47.876;8.346;2023-01-29T03:05:16;-2.90;99.90
9699;DHT22;10089;47.876;8.346;2023-01-29T03:07:49;-2.90;99.90
9699;DHT22;10089;47.876;8.346;2023-01-29T03:10:44;-2.90;70.40
9699;DHT22;10089;47.876;8.346;2023-01-29T03:13:15;-2.90;22.90
9699;DHT22;10089;47.876;8.346;2023-01-29T03:15:48;-3.00;1.00
9699;DHT22;10089;47.876;8.346;2023-01-29T03:18:23;-3.00;1.00
9699;DHT22;10089;47.876;8.346;2023-01-29T03:21:00;-2.90;38.90
9699;DHT22;10089;47.876;8.346;2023-01-29T03:23:31;-3.00;14.80
9699;DHT22;10089;47.876;8.346;2023-01-29T03:26:20;-2.60;48.80
9699;DHT22;10089;47.876;8.346;2023-01-29T03:29:05;-3.00;50.60
9699;DHT22;10089;47.876;8.346;2023-01-29T03:31:52;-3.00;1.00
9699;DHT22;10089;47.876;8.346;2023-01-29T03:34:56;-3.10;1.00
9699;DHT22;10089;47.876;8.346;2023-01-29T03:37:45;-2.80;32.60
9699;DHT22;10089;47.876;8.346;2023-01-29T03:40:12;-3.00;26.00
9699;DHT22;10089;47.876;8.346;2023-01-29T03:42:50;-3.00;37.40
9699;DHT22;10089;47.876;8.346;2023-01-29T03:50:53;-3.00;47.10
9699;DHT22;10089;47.876;8.346;2023-01-29T03:53:42;-2.90;66.30
9699;DHT22;10089;47.876;8.346;2023-01-29T03:56:32;-3.00;23.20
9699;DHT22;10089;47.876;8.346;2023-01-29T04:01:35;-2.90;25.80
9699;DHT22;10089;47.876;8.346;2023-01-29T04:04:08;-3.00;1.00
9699;DHT22;10089;47.876;8.346;2023-01-29T04:06:36;-3.00;1.00
9699;DHT22;10089;47.876;8.346;2023-01-29T04:09:11;-3.00;8.80
9699;DHT22;10089;47.876;8.346;2023-01-29T04:11:46;-3.10;22.90
9699;DHT22;10089;47.876;8.346;2023-01-29T04:14:13;-3.10;79.70
9699;DHT22;10089;47.876;8.346;2023-01-29T04:16:47;-3.10;99.90
9699;DHT22;10089;47.876;8.346;2023-01-29T04:19:14;-3.00;99.90
9699;DHT22;10089;47.876;8.346;2023-01-29T04:21:41;-3.00;99.90
9699;DHT22;10089;47.876;8.346;2023-01-29T04:27:06;-3.10;45.40
9699;DHT22;10089;47.876;8.346;2023-01-29T04:37:58;-3.10;15.20
9699;DHT22;10089;47.876;8.346;2023-01-29T04:43:53;-3.10;74.60
9699;DHT22;10089;47.876;8.346;2023-01-29T04:46:56;-3.10;91.30
9699;DHT22;10089;47.876;8.346;2023-01-29T04:59:44;-3.10;18.60
9699;DHT22;10089;47.876;8.346;2023-01-29T05:02:12;-3.20;1.00
9699;DHT22;10089;47.876;8.346;2023-01-29T05:04:40;-3.20;64.10
9699;DHT22;10089;47.876;8.346;2023-01-29T05:07:11;-3.10;90.30
9699;DHT22;10089;47.876;8.346;2023-01-29T05:09:39;-3.20;74.30
9699;DHT22;10089;47.876;8.346;2023-01-29T05:12:08;-3.10;99.90
9699;DHT22;10089;47.876;8.346;2023-01-29T05:14:36;-3.20;33.30
9699;DHT22;10089;47.876;8.346;2023-01-29T05:17:09;-3.20;88.50
9699;DHT22;10089;47.876;8.346;2023-01-29T05:19:37;-3.20;27.80
9699;DHT22;10089;47.876;8.346;2023-01-29T05:22:04;-3.10;31.40
9699;DHT22;10089;47.876;8.346;2023-01-29T05:24:30;-3.20;26.80
9699;DHT22;10089;47.876;8.346;2023-01-29T05:26:56;-3.10;73.20
9699;DHT22;10089;47.876;8.346;2023-01-29T05:29:45;-3.20;79.50
9699;DHT22;10089;47.876;8.346;2023-01-29T05:32:11;-3.20;69.30
9699;DHT22;10089;47.876;8.346;2023-01-29T05:34:37;-3.20;83.10
9699;DHT22;10089;47.876;8.346;2023-01-29T05:37:03;-3.20;99.90
9699;DHT22;10089;47.876;8.346;2023-01-29T05:39:29;-3.10;99.90
9699;DHT22;10089;47.876;8.346;2023-01-29T05:41:55;-3.10;99.90
9699;DHT22;10089;47.876;8.346;2023-01-29T05:44:20;-3.10;99.90
9699;DHT22;10089;47.876;8.346;2023-01-29T05:46:46;-3.20;83.20
9699;DHT22;10089;47.876;8.346;2023-01-29T05:49:12;-3.20;99.90
9699;DHT22;10089;47.876;8.346;2023-01-29T05:51:38;-3.20;99.90
9699;DHT22;10089;47.876;8.346;2023-01-29T05:54:03;-3.10;99.90
9699;DHT22;10089;47.876;8.346;2023-01-29T05:56:29;-3.10;99.90
9699;DHT22;10089;47.876;8.346;2023-01-29T05:58:55;-3.20;99.90
9699;DHT22;10089;47.876;8.346;2023-01-29T06:01:23;-3.10;99.90
9699;DHT22;10089;47.876;8.346;2023-01-29T06:03:49;-3.20;96.00
9699;DHT22;10089;47.876;8.346;2023-01-29T06:06:15;-3.20;99.90
9699;DHT22;10089;47.876;8.346;2023-01-29T06:08:41;-3.20;99.90
9699;DHT22;10089;47.876;8.346;2023-01-29T06:11:10;-3.20;99.90
9699;DHT22;10089;47.876;8.346;2023-01-29T06:13:36;-3.20;99.90
9699;DHT22;10089;47.876;8.346;2023-01-29T06:16:08;-3.20;99.90
9699;DHT22;10089;47.876;8.346;2023-01-29T06:18:38;-3.30;99.90
9699;DHT22;10089;47.876;8.346;2023-01-29T06:21:06;-3.20;99.90
9699;DHT22;10089;47.876;8.346;2023-01-29T06:23:32;-3.20;99.90
9699;DHT22;10089;47.876;8.346;2023-01-29T06:26:16;-3.20;99.90
9699;DHT22;10089;47.876;8.346;2023-01-29T06:28:42;-3.20;99.90
9699;DHT22;10089;47.876;8.346;2023-01-29T06:31:10;-3.20;99.90
9699;DHT22;10089;47.876;8.346;2023-01-29T06:33:36;-3.20;99.90
9699;DHT22;10089;47.876;8.346;2023-01-29T06:36:03;-3.20;99.90
9699;DHT22;10089;47.876;8.346;2023-01-29T06:38:29;-3.20;99.90
9699;DHT22;10089;47.876;8.346;2023-01-29T06:40:55;-3.20;99.90
9699;DHT22;10089;47.876;8.346;2023-01-29T06:43:22;-3.20;99.90
9699;DHT22;10089;47.876;8.346;2023-01-29T06:45:55;-3.30;99.90
9699;DHT22;10089;47.876;8.346;2023-01-29T06:48:23;-3.30;99.90
9699;DHT22;10089;47.876;8.346;2023-01-29T06:50:49;-3.30;99.90
9699;DHT22;10089;47.876;8.346;2023-01-29T06:53:15;-3.30;99.90
9699;DHT22;10089;47.876;8.346;2023-01-29T06:55:42;-3.20;99.90
9699;DHT22;10089;47.876;8.346;2023-01-29T06:58:10;-3.30;99.90
9699;DHT22;10089;47.876;8.346;2023-01-29T07:00:37;-3.30;99.90
9699;DHT22;10089;47.876;8.346;2023-01-29T07:03:03;-3.30;99.90
9699;DHT22;10089;47.876;8.346;2023-01-29T07:05:29;-3.30;99.90
9699;DHT22;10089;47.876;8.346;2023-01-29T07:07:55;-3.30;99.90
9699;DHT22;10089;47.876;8.346;2023-01-29T07:10:21;-3.30;99.90
9699;DHT22;10089;47.876;8.346;2023-01-29T07:12:47;-3.30;99.90
9699;DHT22;10089;47.876;8.346;2023-01-29T07:15:12;-3.30;99.90
9699;DHT22;10089;47.876;8.346;2023-01-29T07:17:39;-3.20;99.90
9699;DHT22;10089;47.876;8.346;2023-01-29T07:20:05;-3.20;99.90
9699;DHT22;10089;47.876;8.346;2023-01-29T07:22:31;-3.20;99.90
9699;DHT22;10089;47.876;8.346;2023-01-29T07:24:57;-3.30;99.90
9699;DHT22;10089;47.876;8.346;2023-01-29T07:27:23;-3.20;99.90
9699;DHT22;10089;47.876;8.346;2023-01-29T07:29:49;-3.10;99.90
9699;DHT22;10089;47.876;8.346;2023-01-29T07:32:15;-3.10;99.90
9699;DHT22;10089;47.876;8.346;2023-01-29T07:34:40;-3.10;99.90
9699;DHT22;10089;47.876;8.346;2023-01-29T07:37:06;-3.10;99.90
9699;DHT22;10089;47.876;8.346;2023-01-29T07:39:32;-3.10;99.90
9699;DHT22;10089;47.876;8.346;2023-01-29T07:41:58;-3.10;99.90
9699;DHT22;10089;47.876;8.346;2023-01-29T07:44:24;-3.00;99.90
9699;DHT22;10089;47.876;8.346;2023-01-29T07:46:50;-3.20;99.90
9699;DHT22;10089;47.876;8.346;2023-01-29T07:49:16;-3.20;99.90
9699;DHT22;10089;47.876;8.346;2023-01-29T07:51:42;-3.20;99.90
9699;DHT22;10089;47.876;8.346;2023-01-29T07:54:07;-3.10;99.90
9699;DHT22;10089;47.876;8.346;2023-01-29T07:56:33;-3.10;99.90
9699;DHT22;10089;47.876;8.346;2023-01-29T07:58:59;-3.20;99.90
9699;DHT22;10089;47.876;8.346;2023-01-29T08:01:24;-3.10;99.90
9699;DHT22;10089;47.876;8.346;2023-01-29T08:03:50;-3.20;99.90
9699;DHT22;10089;47.876;8.346;2023-01-29T08:06:16;-3.00;99.90
9699;DHT22;10089;47.876;8.346;2023-01-29T08:08:44;-3.00;99.90
9699;DHT22;10089;47.876;8.346;2023-01-29T08:11:09;-3.00;99.90
9699;DHT22;10089;47.876;8.346;2023-01-29T08:13:35;-3.10;99.90
9699;DHT22;10089;47.876;8.346;2023-01-29T08:16:02;-3.10;99.90
9699;DHT22;10089;47.876;8.346;2023-01-29T08:18:28;-3.10;99.90
9699;DHT22;10089;47.876;8.346;2023-01-29T08:21:01;-3.10;99.90
9699;DHT22;10089;47.876;8.346;2023-01-29T08:23:26;-3.10;99.90
9699;DHT22;10089;47.876;8.346;2023-01-29T08:25:52;-3.00;99.90
9699;DHT22;10089;47.876;8.346;2023-01-29T08:28:18;-3.00;99.90
9699;DHT22;10089;47.876;8.346;2023-01-29T08:30:44;-2.90;99.90
9699;DHT22;10089;47.876;8.346;2023-01-29T08:33:10;-3.00;99.90
9699;DHT22;10089;47.876;8.346;2023-01-29T08:35:36;-2.90;99.90
9699;DHT22;10089;47.876;8.346;2023-01-29T08:38:03;-2.80;99.90
9699;DHT22;10089;47.876;8.346;2023-01-29T08:40:31;-2.90;99.90
9699;DHT22;10089;47.876;8.346;2023-01-29T08:43:05;-2.70;99.90
9699;DHT22;10089;47.876;8.346;2023-01-29T08:45:44;-2.60;99.90
9699;DHT22;10089;47.876;8.346;2023-01-29T08:48:10;-2.50;99.90
9699;DHT22;10089;47.876;8.346;2023-01-29T08:50:36;-2.40;99.90
9699;DHT22;10089;47.876;8.346;2023-01-29T08:53:06;-2.30;99.90
9699;DHT22;10089;47.876;8.346;2023-01-29T08:55:40;-2.30;94.60
9699;DHT22;10089;47.876;8.346;2023-01-29T08:58:07;-2.20;98.00
9699;DHT22;10089;47.876;8.346;2023-01-29T09:00:33;-2.20;32.90
9699;DHT22;10089;47.876;8.346;2023-01-29T09:02:59;-2.30;1.70
9699;DHT22;10089;47.876;8.346;2023-01-29T09:05:26;-2.30;21.30
9699;DHT22;10089;47.876;8.346;2023-01-29T09:07:53;-2.20;56.00
9699;DHT22;10089;47.876;8.346;2023-01-29T09:10:19;-2.20;58.20
9699;DHT22;10089;47.876;8.346;2023-01-29T09:12:44;-2.20;76.50
9699;DHT22;10089;47.876;8.346;2023-01-29T09:15:10;-2.20;55.00
9699;DHT22;10089;47.876;8.346;2023-01-29T09:17:36;-2.10;78.60
9699;DHT22;10089;47.876;8.346;2023-01-29T09:20:02;-2.10;27.60
9699;DHT22;10089;47.876;8.346;2023-01-29T09:22:30;-2.30;21.40
9699;DHT22;10089;47.876;8.346;2023-01-29T09:24:56;-2.20;1.00
9699;DHT22;10089;47.876;8.346;2023-01-29T09:27:22;-2.20;1.00
9699;DHT22;10089;47.876;8.346;2023-01-29T09:29:48;-2.20;1.60
9699;DHT22;10089;47.876;8.346;2023-01-29T09:32:14;-2.10;1.00
9699;DHT22;10089;47.876;8.346;2023-01-29T09:34:41;-2.00;1.00
9699;DHT22;10089;47.876;8.346;2023-01-29T09:37:07;-2.00;1.00
9699;DHT22;10089;47.876;8.346;2023-01-29T09:39:33;-2.00;1.00
9699;DHT22;10089;47.876;8.346;2023-01-29T09:42:13;-2.00;1.00
9699;DHT22;10089;47.876;8.346;2023-01-29T09:47:39;-1.80;1.00
9699;DHT22;10089;47.876;8.346;2023-01-29T09:50:21;-1.80;1.00
9699;DHT22;10089;47.876;8.346;2023-01-29T09:53:06;-1.80;1.00
9699;DHT22;10089;47.876;8.346;2023-01-29T09:55:39;-1.90;1.00
9699;DHT22;10089;47.876;8.346;2023-01-29T09:58:31;-1.90;1.00
9699;DHT22;10089;47.876;8.346;2023-01-29T10:25:22;-1.20;1.00
9699;DHT22;10089;47.876;8.346;2023-01-29T10:27:51;-1.30;1.00
9699;DHT22;10089;47.876;8.346;2023-01-29T10:30:34;-1.30;1.00
9699;DHT22;10089;47.876;8.346;2023-01-29T10:33:26;-1.10;1.00
9699;DHT22;10089;47.876;8.346;2023-01-29T10:36:02;-1.10;1.00
9699;DHT22;10089;47.876;8.346;2023-01-29T10:38:43;-1.10;1.00
9699;DHT22;10089;47.876;8.346;2023-01-29T10:58:18;-2.10;1.00
9699;DHT22;10089;47.876;8.346;2023-01-29T11:00:50;-1.90;1.00
9699;DHT22;10089;47.876;8.346;2023-01-29T11:03:25;-1.40;1.00
9699;DHT22;10089;47.876;8.346;2023-01-29T11:08:40;-1.10;1.00
9699;DHT22;10089;47.876;8.346;2023-01-29T11:11:15;-0.90;99.90
9699;DHT22;10089;47.876;8.346;2023-01-29T11:16:12;-0.70;99.90
9699;DHT22;10089;47.876;8.346;2023-01-29T11:18:59;-0.60;1.00
9699;DHT22;10089;47.876;8.346;2023-01-29T11:21:27;0.40;1.00
9699;DHT22;10089;47.876;8.346;2023-01-29T11:24:10;0.30;99.90
9699;DHT22;10089;47.876;8.346;2023-01-29T11:26:39;0.30;1.00
9699;DHT22;10089;47.876;8.346;2023-01-29T11:29:37;-0.40;99.90
9699;DHT22;10089;47.876;8.346;2023-01-29T11:38:16;-1.50;1.00
9699;DHT22;10089;47.876;8.346;2023-01-29T11:40:43;-1.20;99.90
9699;DHT22;10089;47.876;8.346;2023-01-29T11:45:55;-0.40;99.90
9699;DHT22;10089;47.876;8.346;2023-01-29T11:48:25;-0.10;1.00
9699;DHT22;10089;47.876;8.346;2023-01-29T11:50:54;-1.10;99.90
9699;DHT22;10089;47.876;8.346;2023-01-29T11:53:32;-0.90;1.00
9699;DHT22;10089;47.876;8.346;2023-01-29T11:59:04;-0.10;89.10
9699;DHT22;10089;47.876;8.346;2023-01-29T12:01:33;-0.20;12.40
9699;DHT22;10089;47.876;8.346;2023-01-29T12:04:21;0.20;1.00
9699;DHT22;10089;47.876;8.346;2023-01-29T12:07:02;-0.10;1.00
9699;DHT22;10089;47.876;8.346;2023-01-29T12:09:52;-0.70;1.00
9699;DHT22;10089;47.876;8.346;2023-01-29T12:12:38;-0.80;1.00
9699;DHT22;10089;47.876;8.346;2023-01-29T12:17:37;-0.10;99.90
9699;DHT22;10089;47.876;8.346;2023-01-29T12:20:15;-0.60;1.00
9699;DHT22;10089;47.876;8.346;2023-01-29T12:26:08;-1.10;99.90
9699;DHT22;10089;47.876;8.346;2023-01-29T12:31:54;0.10;1.00
9699;DHT22;10089;47.876;8.346;2023-01-29T12:34:41;0.40;1.00
9699;DHT22;10089;47.876;8.346;2023-01-29T12:39:40;0.20;40.10
9699;DHT22;10089;47.876;8.346;2023-01-29T12:42:22;0.30;1.00
9699;DHT22;10089;47.876;8.346;2023-01-29T12:44:56;-0.80;99.90
9699;DHT22;10089;47.876;8.346;2023-01-29T12:51:34;-0.80;99.90
9699;DHT22;10089;47.876;8.346;2023-01-29T12:54:12;0.40;99.90
9699;DHT22;10089;47.876;8.346;2023-01-29T12:57:18;-0.50;99.90
9699;DHT22;10089;47.876;8.346;2023-01-29T13:00:04;-1.00;99.90
9699;DHT22;10089;47.876;8.346;2023-01-29T13:02:44;-0.90;99.90
9699;DHT22;10089;47.876;8.346;2023-01-29T13:05:20;-1.10;99.90
9699;DHT22;10089;47.876;8.346;2023-01-29T13:14:55;-1.20;1.00
9699;DHT22;10089;47.876;8.346;2023-01-29T13:17:43;-1.30;99.90
9699;DHT22;10089;47.876;8.346;2023-01-29T13:22:43;-0.40;99.90
9699;DHT22;10089;47.876;8.346;2023-01-29T13:25:31;-0.70;99.90
9699;DHT22;10089;47.876;8.346;2023-01-29T13:31:59;-0.40;99.90
9699;DHT22;10089;47.876;8.346;2023-01-29T13:34:43;0.60;1.00
9699;DHT22;10089;47.876;8.346;2023-01-29T13:37:15;-0.70;49.30
9699;DHT22;10089;47.876;8.346;2023-01-29T13:43:22;-0.90;99.90
9699;DHT22;10089;47.876;8.346;2023-01-29T13:46:39;-0.70;1.00
9699;DHT22;10089;47.876;8.346;2023-01-29T13:52:51;-1.40;1.00
9699;DHT22;10089;47.876;8.346;2023-01-29T14:13:44;-1.10;1.00
9699;DHT22;10089;47.876;8.346;2023-01-29T14:18:52;-1.20;1.00
9699;DHT22;10089;47.876;8.346;2023-01-29T14:21:22;-1.10;1.00
9699;DHT22;10089;47.876;8.346;2023-01-29T14:23:57;-0.70;1.00
9699;DHT22;10089;47.876;8.346;2023-01-29T14:26:32;-1.30;1.00
9699;DHT22;10089;47.876;8.346;2023-01-29T14:31:46;-1.40;1.00
9699;DHT22;10089;47.876;8.346;2023-01-29T14:37:56;-1.10;1.00
9699;DHT22;10089;47.876;8.346;2023-01-29T14:40:27;0.00;1.00
9699;DHT22;10089;47.876;8.346;2023-01-29T14:43:04;-1.10;1.00
9699;DHT22;10089;47.876;8.346;2023-01-29T14:45:39;-1.20;1.00
9699;DHT22;10089;47.876;8.346;2023-01-29T14:50:48;0.40;1.00
9699;DHT22;10089;47.876;8.346;2023-01-29T14:53:29;0.60;1.00
9699;DHT22;10089;47.876;8.346;2023-01-29T14:56:00;-1.20;1.00
9699;DHT22;10089;47.876;8.346;2023-01-29T15:02:26;-1.30;1.00
9699;DHT22;10089;47.876;8.346;2023-01-29T15:05:09;-1.40;1.00
9699;DHT22;10089;47.876;8.346;2023-01-29T15:07:43;-1.40;1.00
9699;DHT22;10089;47.876;8.346;2023-01-29T15:10:37;-1.30;1.00
9699;DHT22;10089;47.876;8.346;2023-01-29T15:13:21;-1.30;1.00
9699;DHT22;10089;47.876;8.346;2023-01-29T15:16:23;-1.50;1.00
9699;DHT22;10089;47.876;8.346;2023-01-29T15:18:55;-1.50;1.00
9699;DHT22;10089;47.876;8.346;2023-01-29T15:21:26;-1.40;1.00
9699;DHT22;10089;47.876;8.346;2023-01-29T15:24:11;-1.50;1.00
9699;DHT22;10089;47.876;8.346;2023-01-29T15:26:37;-1.60;1.00
9699;DHT22;10089;47.876;8.346;2023-01-29T15:29:18;-1.40;1.00
9699;DHT22;10089;47.876;8.346;2023-01-29T15:31:49;0.10;1.00
9699;DHT22;10089;47.876;8.346;2023-01-29T15:34:15;-1.70;1.00
9699;DHT22;10089;47.876;8.346;2023-01-29T15:36:41;-0.20;1.00
9699;DHT22;10089;47.876;8.346;2023-01-29T15:39:18;-1.70;1.00
9699;DHT22;10089;47.876;8.346;2023-01-29T15:41:45;-1.60;1.00
9699;DHT22;10089;47.876;8.346;2023-01-29T15:44:19;-1.60;1.00
9699;DHT22;10089;47.876;8.346;2023-01-29T15:46:58;-1.50;1.00
9699;DHT22;10089;47.876;8.346;2023-01-29T15:49:35;-1.30;1.00
9699;DHT22;10089;47.876;8.346;2023-01-29T15:52:05;-1.00;1.00
9699;DHT22;10089;47.876;8.346;2023-01-29T15:54:33;-1.40;1.00
9699;DHT22;10089;47.876;8.346;2023-01-29T15:57:00;-1.60;1.00
9699;DHT22;10089;47.876;8.346;2023-01-29T15:59:34;-1.70;1.00
9699;DHT22;10089;47.876;8.346;2023-01-29T16:02:33;-1.70;1.00
9699;DHT22;10089;47.876;8.346;2023-01-29T16:05:00;-1.50;1.00
9699;DHT22;10089;47.876;8.346;2023-01-29T16:07:34;-1.70;1.00
9699;DHT22;10089;47.876;8.346;2023-01-29T16:10:02;-1.70;1.00
9699;DHT22;10089;47.876;8.346;2023-01-29T16:12:56;-1.80;1.00
9699;DHT22;10089;47.876;8.346;2023-01-29T16:15:36;-1.70;1.00
9699;DHT22;10089;47.876;8.346;2023-01-29T16:18:18;-1.90;1.00
9699;DHT22;10089;47.876;8.346;2023-01-29T16:20:49;-2.10;1.00
9699;DHT22;10089;47.876;8.346;2023-01-29T16:23:19;-2.10;3.00
9699;DHT22;10089;47.876;8.346;2023-01-29T16:25:47;-2.20;54.80
9699;DHT22;10089;47.876;8.346;2023-01-29T16:28:14;-2.10;95.90
9699;DHT22;10089;47.876;8.346;2023-01-29T16:30:40;-2.10;99.60
9699;DHT22;10089;47.876;8.346;2023-01-29T16:33:10;-2.00;59.70
9699;DHT22;10089;47.876;8.346;2023-01-29T16:35:37;-2.00;27.00
9699;DHT22;10089;47.876;8.346;2023-01-29T16:38:06;-2.00;26.70
9699;DHT22;10089;47.876;8.346;2023-01-29T16:40:34;-2.00;1.00
9699;DHT22;10089;47.876;8.346;2023-01-29T16:45:39;-2.10;1.00
9699;DHT22;10089;47.876;8.346;2023-01-29T16:48:27;-2.10;56.40
9699;DHT22;10089;47.876;8.346;2023-01-29T16:51:10;-2.10;46.70
9699;DHT22;10089;47.876;8.346;2023-01-29T16:53:37;-2.10;36.30
9699;DHT22;10089;47.876;8.346;2023-01-29T16:56:07;-2.00;37.50
9699;DHT22;10089;47.876;8.346;2023-01-29T16:58:33;-2.20;45.20
9699;DHT22;10089;47.876;8.346;2023-01-29T17:01:04;-2.30;91.10
9699;DHT22;10089;47.876;8.346;2023-01-29T17:03:33;-2.30;99.90
9699;DHT22;10089;47.876;8.346;2023-01-29T17:06:26;-2.20;99.90
9699;DHT22;10089;47.876;8.346;2023-01-29T17:08:52;-2.20;99.90
9699;DHT22;10089;47.876;8.346;2023-01-29T17:11:41;-2.20;99.90
9699;DHT22;10089;47.876;8.346;2023-01-29T17:14:08;-2.10;99.90
9699;DHT22;10089;47.876;8.346;2023-01-29T17:16:55;-2.20;99.90
9699;DHT22;10089;47.876;8.346;2023-01-29T17:19:21;-2.20;99.90
9699;DHT22;10089;47.876;8.346;2023-01-29T17:21:49;-2.30;99.90
9699;DHT22;10089;47.876;8.346;2023-01-29T17:24:15;-2.20;99.90
9699;DHT22;10089;47.876;8.346;2023-01-29T17:26:41;-2.10;99.90
9699;DHT22;10089;47.876;8.346;2023-01-29T17:29:19;-1.60;99.90
9699;DHT22;10089;47.876;8.346;2023-01-29T17:31:46;-2.20;99.90
9699;DHT22;10089;47.876;8.346;2023-01-29T17:34:12;-2.20;99.90
9699;DHT22;10089;47.876;8.346;2023-01-29T17:36:42;-2.30;99.90
9699;DHT22;10089;47.876;8.346;2023-01-29T17:39:35;-2.30;99.90
9699;DHT22;10089;47.876;8.346;2023-01-29T17:42:01;-2.30;99.90
9699;DHT22;10089;47.876;8.346;2023-01-29T17:44:26;-2.10;99.90
9699;DHT22;10089;47.876;8.346;2023-01-29T17:46:52;-2.20;99.90
9699;DHT22;10089;47.876;8.346;2023-01-29T17:51:43;-2.30;99.90
9699;DHT22;10089;47.876;8.346;2023-01-29T17:54:09;-2.30;99.90
9699;DHT22;10089;47.876;8.346;2023-01-29T17:56:35;-2.40;99.90
9699;DHT22;10089;47.876;8.346;2023-01-29T17:59:01;-2.30;99.90
9699;DHT22;10089;47.876;8.346;2023-01-29T18:01:26;-2.30;99.90
9699;DHT22;10089;47.876;8.346;2023-01-29T18:03:52;-2.30;99.90
9699;DHT22;10089;47.876;8.346;2023-01-29T18:06:28;-2.30;99.90
9699;DHT22;10089;47.876;8.346;2023-01-29T18:08:54;-2.20;99.90
9699;DHT22;10089;47.876;8.346;2023-01-29T18:11:21;-2.30;99.90
9699;DHT22;10089;47.876;8.346;2023-01-29T18:13:46;-1.20;99.90
9699;DHT22;10089;47.876;8.346;2023-01-29T18:16:12;-2.40;99.90
9699;DHT22;10089;47.876;8.346;2023-01-29T18:18:38;-2.50;99.90
9699;DHT22;10089;47.876;8.346;2023-01-29T18:21:04;-2.40;99.90
9699;DHT22;10089;47.876;8.346;2023-01-29T18:23:32;-2.50;99.90
9699;DHT22;10089;47.876;8.346;2023-01-29T18:25:58;-1.40;99.90
9699;DHT22;10089;47.876;8.346;2023-01-29T18:28:24;-2.30;99.90
9699;DHT22;10089;47.876;8.346;2023-01-29T18:30:50;-2.30;99.90
9699;DHT22;10089;47.876;8.346;2023-01-29T18:33:19;-0.80;99.90
9699;DHT22;10089;47.876;8.346;2023-01-29T18:35:46;-2.30;99.90
9699;DHT22;10089;47.876;8.346;2023-01-29T18:38:16;-1.50;99.90
9699;DHT22;10089;47.876;8.346;2023-01-29T18:40:49;-2.30;99.90
9699;DHT22;10089;47.876;8.346;2023-01-29T18:43:33;-2.30;99.90
9699;DHT22;10089;47.876;8.346;2023-01-29T18:46:13;-2.30;99.90
9699;DHT22;10089;47.876;8.346;2023-01-29T18:48:45;-2.30;99.90
9699;DHT22;10089;47.876;8.346;2023-01-29T18:51:11;-1.10;99.90
9699;DHT22;10089;47.876;8.346;2023-01-29T18:53:38;-2.10;99.90
9699;DHT22;10089;47.876;8.346;2023-01-29T18:56:05;-2.10;99.90
9699;DHT22;10089;47.876;8.346;2023-01-29T18:58:33;-2.10;99.90
9699;DHT22;10089;47.876;8.346;2023-01-29T19:01:06;-1.60;99.90
9699;DHT22;10089;47.876;8.346;2023-01-29T19:03:34;-2.20;99.90
9699;DHT22;10089;47.876;8.346;2023-01-29T19:06:02;-2.30;99.90
9699;DHT22;10089;47.876;8.346;2023-01-29T19:08:32;-2.30;99.90
9699;DHT22;10089;47.876;8.346;2023-01-29T19:11:21;-2.50;99.90
9699;DHT22;10089;47.876;8.346;2023-01-29T19:13:47;-2.70;99.90
9699;DHT22;10089;47.876;8.346;2023-01-29T19:16:14;-2.70;99.90
9699;DHT22;10089;47.876;8.346;2023-01-29T19:18:40;-1.90;99.90
9699;DHT22;10089;47.876;8.346;2023-01-29T19:21:25;-2.50;99.90
9699;DHT22;10089;47.876;8.346;2023-01-29T19:23:51;-1.30;99.90
9699;DHT22;10089;47.876;8.346;2023-01-29T19:26:20;-2.40;99.90
9699;DHT22;10089;47.876;8.346;2023-01-29T19:28:46;-2.10;99.90